Flight Track Log - Related Links

Times and Time Zones

All times are in EDT time to prevent confusion due to time zone crossing. See the ASQ5941 flight status page for this flight to view local times or setup timezone preferences in your user account.

Time Position Orientation Groundspeed Altitude Reporting Facility
EDT Latitude Longitude Course Direction KTS MPH feet Rate Location/Type
Sat 12:30:21 PM 41.8872 -91.7997 54° Northeast 188 216 4,300  Level Chicago Center
Sat 12:31:23 PM 41.9311 -91.8125 348° North 205 236 7,400 2,323 Climbing Chicago Center
Sat 12:32:00 PM 42.0366 -91.4101 56° Northeast  Level FlightAware Approximate
Sat 12:32:25 PM 41.9619 -91.7314 63° Northeast 242 278 9,100  Level Chicago Center
Sat 12:33:00 PM 42.0727 -91.3349 62° Northeast  Level FlightAware Approximate
Sat 12:33:26 PM 42.0033 -91.6408 58° Northeast 281 323 10,700  Level Chicago Center
Sat 12:34:00 PM 42.1054 -91.2568 54° Northeast  Level FlightAware Approximate
Sat 12:34:29 PM 42.0611 -91.5044 60° Northeast 355 409 12,200  Level Chicago Center
Sat 12:35:00 PM 42.1585 -91.1595 54° Northeast  Level FlightAware Approximate
Sat 12:35:30 PM 42.1103 -91.3922 59° Northeast 354 407 14,300  Level Chicago Center
Sat 12:36:32 PM 42.1608 -91.2758 60° Northeast 361 415 15,800 1,268 Climbing Chicago Center
Sat 12:37:33 PM 42.2131 -91.1556 60° Northeast 374 430 16,900 1,024 Climbing Chicago Center
Sat 12:38:35 PM 42.2669 -91.0289 60° Northeast 389 448 17,900 1,258 Climbing Chicago Center
Sat 12:39:37 PM 42.3317 -90.8747 60° Northeast 397 457 19,500 1,210 Climbing Chicago Center
Sat 12:40:39 PM 42.3875 -90.7406 61° Northeast 410 472 20,400 677 Climbing Chicago Center
Sat 12:41:41 PM 42.4142 -90.5758 78° East 456 525 20,900 293 Climbing Chicago Center
Sat 12:42:42 PM 42.4331 -90.4039 81° East 466 536 21,000 49 Climbing Chicago Center
Sat 12:43:44 PM 42.4497 -90.2253 83° East 480 552 21,000  Level Chicago Center
Sat 12:44:46 PM 42.4700 -90.0136 83° East 479 551 21,000  Level Chicago Center
Sat 12:45:48 PM 42.4628 -89.8439 93° East 480 552 21,000  Level Chicago Center
Sat 12:46:50 PM 42.4511 -89.6589 95° East 491 565 21,000  Level Chicago Center
Sat 12:47:51 PM 42.4378 -89.4453 95° East 491 565 21,000 -293 Level Chicago Center
Sat 12:48:53 PM 42.4264 -89.2622 95° East 489 563 20,400 -726 Descending Chicago Center
Sat 12:49:55 PM 42.4142 -89.0819 95° East 484 557 19,500 -1,403 Descending Chicago Center
Sat 12:50:57 PM 42.4031 -88.9047 95° East 474 545 17,500 -2,613 Descending Chicago Center
Sat 12:51:59 PM 42.3925 -88.7519 95° East 413 475 14,100 -3,366 Descending Chicago Center
Sat 12:53:00 PM 42.3833 -88.6114 95° East 382 440 10,600 -2,000 Descending Chicago Center
Sat 12:54:02 PM 42.3611 -88.4583 101° East 369 425 10,000 -290 Descending Chicago Center
Sat 12:55:04 PM 42.3111 -88.3408 120° Southeast 364 419 10,000  Level Chicago Center
Sat 12:56:06 PM 42.2472 -88.2347 129° Southeast 365 420 10,000  Level Chicago Center
Sat 12:57:08 PM 42.1814 -88.1292 130° Southeast 368 423 10,000 -532 Level Chicago Center
Sat 12:58:10 PM 42.1161 -88.0578 141° Southeast 307 353 8,900 -1,429 Descending Chicago Center
Sat 12:58:53 PM 42.1000 -87.9667 103° East 288 331 7,500 -1,163 Descending Chicago TRACON
Sat 12:59:48 PM 42.1000 -87.8833 90° East 256 295 7,000 -730 Descending Chicago TRACON
Sat 01:00:48 PM 42.1000 -87.7833 90° East 234 269 6,100 -1,316 Descending Chicago TRACON
Sat 01:01:42 PM 42.0833 -87.7167 109° East 237 273 4,500 -1,778 Descending Chicago TRACON

Login

Don't have an account? Register now (free) for customized features, flight alerts, and more!